sensor_id;sensor_type;location;lat;lon;timestamp;pressure;altitude;pressure_sealevel;temperature;humidity
16331;BME280;8275;48.206;16.340;2023-02-12T00:01:39;100739.28;;;11.67;40.14
16331;BME280;8275;48.206;16.340;2023-02-12T00:04:08;100741.38;;;11.65;40.43
16331;BME280;8275;48.206;16.340;2023-02-12T00:06:37;100731.50;;;11.64;40.61
16331;BME280;8275;48.206;16.340;2023-02-12T00:09:07;100743.31;;;11.65;40.33
16331;BME280;8275;48.206;16.340;2023-02-12T00:11:36;100749.63;;;11.65;40.32
16331;BME280;8275;48.206;16.340;2023-02-12T00:14:04;100753.22;;;11.66;40.56
16331;BME280;8275;48.206;16.340;2023-02-12T00:16:33;100758.69;;;11.66;40.47
16331;BME280;8275;48.206;16.340;2023-02-12T00:19:01;100754.06;;;11.66;40.79
16331;BME280;8275;48.206;16.340;2023-02-12T00:21:30;100766.72;;;11.67;40.54
16331;BME280;8275;48.206;16.340;2023-02-12T00:23:59;100762.09;;;11.68;40.91
16331;BME280;8275;48.206;16.340;2023-02-12T00:26:28;100764.63;;;11.69;40.43
16331;BME280;8275;48.206;16.340;2023-02-12T00:28:57;100761.66;;;11.71;41.13
16331;BME280;8275;48.206;16.340;2023-02-12T00:31:28;100770.72;;;11.71;40.58
16331;BME280;8275;48.206;16.340;2023-02-12T00:33:58;100775.13;;;11.72;41.05
16331;BME280;8275;48.206;16.340;2023-02-12T00:36:29;100781.47;;;11.73;40.83
16331;BME280;8275;48.206;16.340;2023-02-12T00:38:58;100765.84;;;11.73;40.71
16331;BME280;8275;48.206;16.340;2023-02-12T00:41:28;100782.06;;;11.75;40.64
16331;BME280;8275;48.206;16.340;2023-02-12T00:43:57;100778.28;;;11.76;40.64
16331;BME280;8275;48.206;16.340;2023-02-12T00:46:25;100772.31;;;11.79;40.61
16331;BME280;8275;48.206;16.340;2023-02-12T00:48:54;100765.53;;;11.81;40.85
16331;BME280;8275;48.206;16.340;2023-02-12T00:51:23;100774.16;;;11.85;40.71
16331;BME280;8275;48.206;16.340;2023-02-12T00:53:51;100774.78;;;11.87;40.52
16331;BME280;8275;48.206;16.340;2023-02-12T00:56:20;100769.88;;;11.89;40.86
16331;BME280;8275;48.206;16.340;2023-02-12T00:58:49;100767.75;;;11.91;41.12
16331;BME280;8275;48.206;16.340;2023-02-12T01:01:18;100782.31;;;11.91;41.08
16331;BME280;8275;48.206;16.340;2023-02-12T01:03:47;100774.69;;;11.93;40.85
16331;BME280;8275;48.206;16.340;2023-02-12T01:06:15;100794.06;;;11.98;40.75
16331;BME280;8275;48.206;16.340;2023-02-12T01:08:44;100779.25;;;11.99;41.38
16331;BME280;8275;48.206;16.340;2023-02-12T01:11:12;100787.75;;;11.98;41.29
16331;BME280;8275;48.206;16.340;2023-02-12T01:13:41;100782.25;;;11.98;41.25
16331;BME280;8275;48.206;16.340;2023-02-12T01:16:14;100783.34;;;11.97;41.12
16331;BME280;8275;48.206;16.340;2023-02-12T01:18:44;100777.16;;;12.02;41.10
16331;BME280;8275;48.206;16.340;2023-02-12T01:21:16;100788.75;;;12.04;40.78
16331;BME280;8275;48.206;16.340;2023-02-12T01:23:46;100798.88;;;12.03;41.16
16331;BME280;8275;48.206;16.340;2023-02-12T01:26:16;100796.13;;;12.03;41.43
16331;BME280;8275;48.206;16.340;2023-02-12T01:28:53;100806.72;;;11.99;41.38
16331;BME280;8275;48.206;16.340;2023-02-12T01:31:27;100798.72;;;11.98;41.32
16331;BME280;8275;48.206;16.340;2023-02-12T01:33:59;100792.38;;;11.97;41.51
16331;BME280;8275;48.206;16.340;2023-02-12T01:36:29;100795.97;;;11.98;41.47
16331;BME280;8275;48.206;16.340;2023-02-12T01:38:58;100801.22;;;11.99;41.24
16331;BME280;8275;48.206;16.340;2023-02-12T01:41:32;100801.72;;;11.96;41.74
16331;BME280;8275;48.206;16.340;2023-02-12T01:44:19;100814.84;;;11.94;41.78
16331;BME280;8275;48.206;16.340;2023-02-12T01:46:55;100804.91;;;11.93;42.61
16331;BME280;8275;48.206;16.340;2023-02-12T01:49:29;100808.94;;;11.91;42.55
16331;BME280;8275;48.206;16.340;2023-02-12T01:52:05;100806.28;;;11.84;42.88
16331;BME280;8275;48.206;16.340;2023-02-12T01:54:36;100807.56;;;11.82;42.91
16331;BME280;8275;48.206;16.340;2023-02-12T01:57:06;100807.81;;;11.80;43.49
16331;BME280;8275;48.206;16.340;2023-02-12T01:59:36;100802.50;;;11.79;43.34
16331;BME280;8275;48.206;16.340;2023-02-12T02:02:08;100801.91;;;11.77;43.87
16331;BME280;8275;48.206;16.340;2023-02-12T02:04:42;100801.28;;;11.75;43.56
16331;BME280;8275;48.206;16.340;2023-02-12T02:07:13;100794.75;;;11.76;43.63
16331;BME280;8275;48.206;16.340;2023-02-12T02:09:42;100815.03;;;11.75;43.88
16331;BME280;8275;48.206;16.340;2023-02-12T02:12:11;100816.31;;;11.72;43.71
16331;BME280;8275;48.206;16.340;2023-02-12T02:14:58;100819.75;;;11.68;43.97
16331;BME280;8275;48.206;16.340;2023-02-12T02:17:42;100814.25;;;11.68;43.79
16331;BME280;8275;48.206;16.340;2023-02-12T02:30:13;100815.97;;;11.62;44.06
16331;BME280;8275;48.206;16.340;2023-02-12T02:33:00;100817.88;;;11.62;44.11
16331;BME280;8275;48.206;16.340;2023-02-12T02:35:39;100821.28;;;11.57;44.49
16331;BME280;8275;48.206;16.340;2023-02-12T02:38:21;100821.72;;;11.54;44.27
16331;BME280;8275;48.206;16.340;2023-02-12T02:40:59;100812.28;;;11.50;44.17
16331;BME280;8275;48.206;16.340;2023-02-12T02:43:33;100810.81;;;11.48;44.46
16331;BME280;8275;48.206;16.340;2023-02-12T02:46:08;100812.97;;;11.46;44.44
16331;BME280;8275;48.206;16.340;2023-02-12T02:48:44;100812.09;;;11.45;44.51
16331;BME280;8275;48.206;16.340;2023-02-12T02:51:18;100807.91;;;11.43;44.28
16331;BME280;8275;48.206;16.340;2023-02-12T02:53:52;100819.13;;;11.41;44.74
16331;BME280;8275;48.206;16.340;2023-02-12T02:56:23;100813.84;;;11.40;44.52
16331;BME280;8275;48.206;16.340;2023-02-12T02:58:57;100817.66;;;11.39;44.79
16331;BME280;8275;48.206;16.340;2023-02-12T03:01:31;100821.69;;;11.36;44.81
16331;BME280;8275;48.206;16.340;2023-02-12T03:04:06;100823.81;;;11.34;44.77
16331;BME280;8275;48.206;16.340;2023-02-12T03:06:42;100829.75;;;11.31;44.83
16331;BME280;8275;48.206;16.340;2023-02-12T03:09:18;100834.63;;;11.29;44.99
16331;BME280;8275;48.206;16.340;2023-02-12T03:11:49;100835.06;;;11.26;45.04
16331;BME280;8275;48.206;16.340;2023-02-12T03:14:22;100830.84;;;11.23;45.00
16331;BME280;8275;48.206;16.340;2023-02-12T03:16:58;100838.25;;;11.23;45.46
16331;BME280;8275;48.206;16.340;2023-02-12T03:19:32;100839.06;;;11.23;45.10
16331;BME280;8275;48.206;16.340;2023-02-12T03:22:06;100837.19;;;11.24;45.27
16331;BME280;8275;48.206;16.340;2023-02-12T03:24:39;100838.25;;;11.23;45.12
16331;BME280;8275;48.206;16.340;2023-02-12T03:27:15;100852.78;;;11.23;45.18
16331;BME280;8275;48.206;16.340;2023-02-12T03:29:45;100858.09;;;11.25;44.91
16331;BME280;8275;48.206;16.340;2023-02-12T03:32:27;100882.97;;;11.23;44.88
16331;BME280;8275;48.206;16.340;2023-02-12T03:35:09;100876.88;;;11.21;44.86
16331;BME280;8275;48.206;16.340;2023-02-12T03:37:47;100864.84;;;11.22;45.09
16331;BME280;8275;48.206;16.340;2023-02-12T03:40:25;100886.38;;;11.19;44.83
16331;BME280;8275;48.206;16.340;2023-02-12T03:43:01;100896.13;;;11.15;45.05
16331;BME280;8275;48.206;16.340;2023-02-12T03:45:39;100892.13;;;11.11;45.07
16331;BME280;8275;48.206;16.340;2023-02-12T03:48:17;100886.03;;;11.09;45.10
16331;BME280;8275;48.206;16.340;2023-02-12T03:50:53;100889.63;;;11.09;44.94
16331;BME280;8275;48.206;16.340;2023-02-12T03:53:24;100892.38;;;11.09;44.95
16331;BME280;8275;48.206;16.340;2023-02-12T03:55:58;100908.81;;;11.09;44.66
16331;BME280;8275;48.206;16.340;2023-02-12T03:58:32;100915.13;;;11.10;44.65
16331;BME280;8275;48.206;16.340;2023-02-12T04:01:03;100915.97;;;11.10;44.95
16331;BME280;8275;48.206;16.340;2023-02-12T04:03:33;100920.63;;;11.10;45.25
16331;BME280;8275;48.206;16.340;2023-02-12T04:06:02;100929.50;;;11.12;44.84
16331;BME280;8275;48.206;16.340;2023-02-12T04:08:31;100931.16;;;11.13;45.36
16331;BME280;8275;48.206;16.340;2023-02-12T04:11:06;100943.81;;;11.14;45.27
16331;BME280;8275;48.206;16.340;2023-02-12T04:13:46;100944.22;;;11.17;45.06
16331;BME280;8275;48.206;16.340;2023-02-12T04:16:27;100943.78;;;11.20;44.87
16331;BME280;8275;48.206;16.340;2023-02-12T04:19:00;100948.59;;;11.25;44.51
16331;BME280;8275;48.206;16.340;2023-02-12T04:21:44;100942.03;;;11.26;44.48
16331;BME280;8275;48.206;16.340;2023-02-12T04:24:22;100939.72;;;11.29;44.71
16331;BME280;8275;48.206;16.340;2023-02-12T04:27:00;100947.72;;;11.31;44.89
16331;BME280;8275;48.206;16.340;2023-02-12T04:29:38;100956.19;;;11.29;45.42
16331;BME280;8275;48.206;16.340;2023-02-12T04:32:15;100962.09;;;11.26;45.32
16331;BME280;8275;48.206;16.340;2023-02-12T04:34:53;100961.25;;;11.26;45.64
16331;BME280;8275;48.206;16.340;2023-02-12T04:37:30;100952.41;;;11.24;45.20
16331;BME280;8275;48.206;16.340;2023-02-12T04:40:04;100968.00;;;11.23;45.39
16331;BME280;8275;48.206;16.340;2023-02-12T04:42:41;100964.44;;;11.23;45.46
16331;BME280;8275;48.206;16.340;2023-02-12T04:45:10;100957.03;;;11.23;45.37
16331;BME280;8275;48.206;16.340;2023-02-12T04:47:39;100949.66;;;11.24;45.39
16331;BME280;8275;48.206;16.340;2023-02-12T04:50:10;100964.22;;;11.24;45.53
16331;BME280;8275;48.206;16.340;2023-02-12T04:52:39;100961.47;;;11.24;45.84
16331;BME280;8275;48.206;16.340;2023-02-12T04:55:07;100966.72;;;11.26;45.52
16331;BME280;8275;48.206;16.340;2023-02-12T04:57:36;100966.97;;;11.24;45.83
16331;BME280;8275;48.206;16.340;2023-02-12T05:00:07;100974.34;;;11.24;45.89
16331;BME280;8275;48.206;16.340;2023-02-12T05:02:36;100979.81;;;11.24;46.46
16331;BME280;8275;48.206;16.340;2023-02-12T05:05:05;100978.16;;;11.23;46.15
16331;BME280;8275;48.206;16.340;2023-02-12T05:07:35;100991.88;;;11.23;46.38
16331;BME280;8275;48.206;16.340;2023-02-12T05:10:05;100989.34;;;11.21;46.30
16331;BME280;8275;48.206;16.340;2023-02-12T05:12:34;101000.31;;;11.21;46.59
16331;BME280;8275;48.206;16.340;2023-02-12T05:15:02;100996.09;;;11.19;46.70
16331;BME280;8275;48.206;16.340;2023-02-12T05:17:31;100994.81;;;11.21;46.26
16331;BME280;8275;48.206;16.340;2023-02-12T05:20:00;100991.25;;;11.21;46.62
16331;BME280;8275;48.206;16.340;2023-02-12T05:22:28;100991.47;;;11.19;46.54
16331;BME280;8275;48.206;16.340;2023-02-12T05:24:58;100989.38;;;11.15;46.42
16331;BME280;8275;48.206;16.340;2023-02-12T05:27:26;100995.31;;;11.12;46.77
16331;BME280;8275;48.206;16.340;2023-02-12T05:29:54;100999.53;;;11.08;46.97
16331;BME280;8275;48.206;16.340;2023-02-12T05:32:23;101011.56;;;11.07;46.49
16331;BME280;8275;48.206;16.340;2023-02-12T05:34:52;101012.00;;;11.04;46.54
16331;BME280;8275;48.206;16.340;2023-02-12T05:37:20;101015.16;;;11.01;47.00
16331;BME280;8275;48.206;16.340;2023-02-12T05:39:49;101017.50;;;10.97;47.15
16331;BME280;8275;48.206;16.340;2023-02-12T05:42:18;101033.13;;;10.97;46.79
16331;BME280;8275;48.206;16.340;2023-02-12T05:44:47;101015.00;;;10.96;46.87
16331;BME280;8275;48.206;16.340;2023-02-12T05:47:15;101029.34;;;10.98;47.20
16331;BME280;8275;48.206;16.340;2023-02-12T05:49:43;101026.38;;;10.99;47.25
16331;BME280;8275;48.206;16.340;2023-02-12T05:52:12;101028.69;;;11.02;46.71
16331;BME280;8275;48.206;16.340;2023-02-12T05:54:41;101042.41;;;11.02;46.82
16331;BME280;8275;48.206;16.340;2023-02-12T05:57:09;101041.94;;;11.05;47.28
16331;BME280;8275;48.206;16.340;2023-02-12T05:59:39;101051.63;;;11.08;47.10
16331;BME280;8275;48.206;16.340;2023-02-12T06:02:07;101056.09;;;11.09;46.97
16331;BME280;8275;48.206;16.340;2023-02-12T06:04:36;101059.44;;;11.11;47.21
16331;BME280;8275;48.206;16.340;2023-02-12T06:07:04;101061.16;;;11.12;46.89
16331;BME280;8275;48.206;16.340;2023-02-12T06:09:34;101067.44;;;11.12;46.98
16331;BME280;8275;48.206;16.340;2023-02-12T06:12:03;101065.56;;;11.13;47.32
16331;BME280;8275;48.206;16.340;2023-02-12T06:14:31;101073.56;;;11.14;47.25
16331;BME280;8275;48.206;16.340;2023-02-12T06:17:01;101087.28;;;11.14;47.52
16331;BME280;8275;48.206;16.340;2023-02-12T06:19:29;101089.19;;;11.14;47.39
16331;BME280;8275;48.206;16.340;2023-02-12T06:21:58;101091.94;;;11.14;47.25
16331;BME280;8275;48.206;16.340;2023-02-12T06:24:26;101093.19;;;11.18;47.07
16331;BME280;8275;48.206;16.340;2023-02-12T06:26:54;101096.78;;;11.18;47.67
16331;BME280;8275;48.206;16.340;2023-02-12T06:29:23;101094.84;;;11.19;47.36
16331;BME280;8275;48.206;16.340;2023-02-12T06:31:51;101095.94;;;11.18;47.62
16331;BME280;8275;48.206;16.340;2023-02-12T06:34:21;101093.19;;;11.18;47.46
16331;BME280;8275;48.206;16.340;2023-02-12T06:36:50;101095.94;;;11.18;47.80
16331;BME280;8275;48.206;16.340;2023-02-12T06:39:18;101100.34;;;11.19;47.58
16331;BME280;8275;48.206;16.340;2023-02-12T06:41:46;101090.44;;;11.18;47.94
16331;BME280;8275;48.206;16.340;2023-02-12T06:44:15;101091.28;;;11.18;48.19
16331;BME280;8275;48.206;16.340;2023-02-12T06:46:43;101098.66;;;11.18;48.14
16331;BME280;8275;48.206;16.340;2023-02-12T06:49:12;101099.28;;;11.20;48.19
16331;BME280;8275;48.206;16.340;2023-02-12T06:51:44;101099.28;;;11.20;47.78
16331;BME280;8275;48.206;16.340;2023-02-12T06:54:15;101098.25;;;11.21;47.96
16331;BME280;8275;48.206;16.340;2023-02-12T06:56:43;101104.34;;;11.23;48.03
16331;BME280;8275;48.206;16.340;2023-02-12T06:59:14;101102.22;;;11.25;48.25
16331;BME280;8275;48.206;16.340;2023-02-12T07:01:43;101107.50;;;11.26;47.93
16331;BME280;8275;48.206;16.340;2023-02-12T07:04:12;101095.25;;;11.29;48.30
16331;BME280;8275;48.206;16.340;2023-02-12T07:06:40;101099.22;;;11.33;48.21
16331;BME280;8275;48.206;16.340;2023-02-12T07:09:10;101105.34;;;11.35;47.80
16331;BME280;8275;48.206;16.340;2023-02-12T07:11:39;101107.88;;;11.37;48.11
16331;BME280;8275;48.206;16.340;2023-02-12T07:14:12;101096.69;;;11.38;47.95
16331;BME280;8275;48.206;16.340;2023-02-12T07:16:41;101103.66;;;11.41;48.07
16331;BME280;8275;48.206;16.340;2023-02-12T07:19:12;101095.19;;;11.42;48.04
16331;BME280;8275;48.206;16.340;2023-02-12T07:21:40;101103.22;;;11.44;47.94
16331;BME280;8275;48.206;16.340;2023-02-12T07:24:11;101106.81;;;11.44;47.66
16331;BME280;8275;48.206;16.340;2023-02-12T07:26:40;101105.50;;;11.47;47.66
16331;BME280;8275;48.206;16.340;2023-02-12T07:29:08;101103.19;;;11.50;47.82
16331;BME280;8275;48.206;16.340;2023-02-12T07:31:37;101111.19;;;11.52;47.96
16331;BME280;8275;48.206;16.340;2023-02-12T07:34:06;101111.63;;;11.55;47.44
16331;BME280;8275;48.206;16.340;2023-02-12T07:36:35;101115.84;;;11.58;47.83
16331;BME280;8275;48.206;16.340;2023-02-12T07:39:04;101121.72;;;11.61;47.82
16331;BME280;8275;48.206;16.340;2023-02-12T07:41:35;101123.41;;;11.62;47.84
16331;BME280;8275;48.206;16.340;2023-02-12T07:44:05;101126.78;;;11.64;47.78
16331;BME280;8275;48.206;16.340;2023-02-12T07:46:38;101129.94;;;11.68;47.27
16331;BME280;8275;48.206;16.340;2023-02-12T07:49:11;101134.78;;;11.72;47.54
16331;BME280;8275;48.206;16.340;2023-02-12T07:51:40;101132.44;;;11.76;47.76
16331;BME280;8275;48.206;16.340;2023-02-12T07:54:09;101128.81;;;11.82;47.56
16331;BME280;8275;48.206;16.340;2023-02-12T07:56:41;101132.81;;;11.86;47.30
16331;BME280;8275;48.206;16.340;2023-02-12T07:59:16;101143.13;;;11.90;46.90
16331;BME280;8275;48.206;16.340;2023-02-12T08:01:46;101137.81;;;11.95;46.97
16331;BME280;8275;48.206;16.340;2023-02-12T08:04:17;101140.53;;;12.02;47.20
16331;BME280;8275;48.206;16.340;2023-02-12T08:06:48;101133.31;;;12.08;46.68
16331;BME280;8275;48.206;16.340;2023-02-12T08:09:19;101140.06;;;12.12;46.62
16331;BME280;8275;48.206;16.340;2023-02-12T08:11:49;101144.88;;;12.16;46.90
16331;BME280;8275;48.206;16.340;2023-02-12T08:14:20;101140.41;;;12.22;46.35
16331;BME280;8275;48.206;16.340;2023-02-12T08:16:49;101149.00;;;12.32;46.51
16331;BME280;8275;48.206;16.340;2023-02-12T08:19:19;101151.50;;;12.40;46.14
16331;BME280;8275;48.206;16.340;2023-02-12T08:21:56;101154.19;;;12.46;46.04
16331;BME280;8275;48.206;16.340;2023-02-12T08:24:25;101162.19;;;12.54;45.96
16331;BME280;8275;48.206;16.340;2023-02-12T08:26:55;101161.50;;;12.59;45.72
16331;BME280;8275;48.206;16.340;2023-02-12T08:29:26;101160.84;;;12.63;45.78
16331;BME280;8275;48.206;16.340;2023-02-12T08:31:57;101156.13;;;12.71;45.47
16331;BME280;8275;48.206;16.340;2023-02-12T08:34:28;101164.06;;;12.79;45.79
16331;BME280;8275;48.206;16.340;2023-02-12T08:36:57;101161.88;;;12.87;45.35
16331;BME280;8275;48.206;16.340;2023-02-12T08:39:28;101155.50;;;12.93;45.41
16331;BME280;8275;48.206;16.340;2023-02-12T08:41:59;101152.06;;;12.98;45.05
16331;BME280;8275;48.206;16.340;2023-02-12T08:44:27;101155.59;;;13.05;45.02
16331;BME280;8275;48.206;16.340;2023-02-12T08:46:56;101164.41;;;13.13;45.05
16331;BME280;8275;48.206;16.340;2023-02-12T08:49:27;101166.03;;;13.21;44.80
16331;BME280;8275;48.206;16.340;2023-02-12T08:51:57;101164.06;;;13.28;44.52
16331;BME280;8275;48.206;16.340;2023-02-12T08:54:28;101169.69;;;13.33;44.14
16331;BME280;8275;48.206;16.340;2023-02-12T08:57:00;101171.16;;;13.35;44.10
16331;BME280;8275;48.206;16.340;2023-02-12T08:59:29;101177.91;;;13.40;44.08
16331;BME280;8275;48.206;16.340;2023-02-12T09:01:58;101185.69;;;13.43;43.65
16331;BME280;8275;48.206;16.340;2023-02-12T09:04:27;101176.38;;;13.44;43.64
16331;BME280;8275;48.206;16.340;2023-02-12T09:06:56;101180.59;;;13.46;43.76
16331;BME280;8275;48.206;16.340;2023-02-12T09:09:25;101189.47;;;13.48;43.65
16331;BME280;8275;48.206;16.340;2023-02-12T09:11:53;101187.31;;;13.50;43.49
16331;BME280;8275;48.206;16.340;2023-02-12T09:14:23;101190.22;;;13.55;43.42
16331;BME280;8275;48.206;16.340;2023-02-12T09:16:52;101200.56;;;13.60;43.46
16331;BME280;8275;48.206;16.340;2023-02-12T09:19:23;101202.97;;;13.68;43.37
16331;BME280;8275;48.206;16.340;2023-02-12T09:21:54;101209.50;;;13.73;43.02
16331;BME280;8275;48.206;16.340;2023-02-12T09:24:24;101208.56;;;13.79;43.09
16331;BME280;8275;48.206;16.340;2023-02-12T09:26:54;101203.63;;;13.88;42.86
16331;BME280;8275;48.206;16.340;2023-02-12T09:29:24;101215.16;;;13.96;42.74
16331;BME280;8275;48.206;16.340;2023-02-12T09:31:52;101210.16;;;14.05;42.41
16331;BME280;8275;48.206;16.340;2023-02-12T09:34:21;101212.81;;;14.12;42.06
16331;BME280;8275;48.206;16.340;2023-02-12T09:36:49;101211.50;;;14.14;42.00
16331;BME280;8275;48.206;16.340;2023-02-12T09:39:18;101213.56;;;14.19;42.12
16331;BME280;8275;48.206;16.340;2023-02-12T09:42:12;101226.44;;;14.25;41.92
16331;BME280;8275;48.206;16.340;2023-02-12T09:44:49;101218.31;;;14.30;41.62
16331;BME280;8275;48.206;16.340;2023-02-12T09:47:26;101219.06;;;14.37;41.86
16331;BME280;8275;48.206;16.340;2023-02-12T09:50:10;101211.94;;;14.47;41.50
16331;BME280;8275;48.206;16.340;2023-02-12T09:52:42;101213.63;;;14.60;41.44
16331;BME280;8275;48.206;16.340;2023-02-12T09:55:14;101219.09;;;14.66;41.08
16331;BME280;8275;48.206;16.340;2023-02-12T09:57:44;101208.03;;;14.66;40.86
16331;BME280;8275;48.206;16.340;2023-02-12T10:00:21;101211.88;;;14.65;40.91
16331;BME280;8275;48.206;16.340;2023-02-12T10:02:52;101212.72;;;14.66;41.00
16331;BME280;8275;48.206;16.340;2023-02-12T10:05:26;101216.19;;;14.61;40.82
16331;BME280;8275;48.206;16.340;2023-02-12T10:08:17;101213.38;;;14.50;40.88
16331;BME280;8275;48.206;16.340;2023-02-12T10:10:53;101214.78;;;14.41;40.95
16331;BME280;8275;48.206;16.340;2023-02-12T10:13:35;101219.78;;;14.32;41.06
16331;BME280;8275;48.206;16.340;2023-02-12T10:16:17;101222.13;;;14.29;41.34
16331;BME280;8275;48.206;16.340;2023-02-12T10:19:10;101229.41;;;14.23;41.28
16331;BME280;8275;48.206;16.340;2023-02-12T10:21:53;101218.47;;;14.17;41.51
16331;BME280;8275;48.206;16.340;2023-02-12T10:25:01;101214.75;;;14.11;41.59
16331;BME280;8275;48.206;16.340;2023-02-12T10:27:38;101215.56;;;14.12;41.61
16331;BME280;8275;48.206;16.340;2023-02-12T10:30:18;101226.38;;;14.13;41.68
16331;BME280;8275;48.206;16.340;2023-02-12T10:32:53;101207.09;;;14.13;41.45
16331;BME280;8275;48.206;16.340;2023-02-12T10:35:25;101216.31;;;14.19;41.68
16331;BME280;8275;48.206;16.340;2023-02-12T10:38:00;101218.63;;;14.22;41.62
16331;BME280;8275;48.206;16.340;2023-02-12T10:40:33;101221.28;;;14.28;41.43
16331;BME280;8275;48.206;16.340;2023-02-12T10:43:05;101233.25;;;14.40;41.59
16331;BME280;8275;48.206;16.340;2023-02-12T10:45:39;101230.78;;;14.50;41.44
16331;BME280;8275;48.206;16.340;2023-02-12T10:48:13;101232.84;;;14.55;41.07
16331;BME280;8275;48.206;16.340;2023-02-12T10:51:05;101223.47;;;14.56;41.09
16331;BME280;8275;48.206;16.340;2023-02-12T10:53:43;101220.25;;;14.59;40.96
16331;BME280;8275;48.206;16.340;2023-02-12T10:56:16;101224.00;;;14.76;40.90
16331;BME280;8275;48.206;16.340;2023-02-12T10:58:54;101227.41;;;15.01;40.79
16331;BME280;8275;48.206;16.340;2023-02-12T11:01:27;101217.34;;;15.30;40.41
16331;BME280;8275;48.206;16.340;2023-02-12T11:04:00;101220.00;;;15.60;39.90
16331;BME280;8275;48.206;16.340;2023-02-12T11:06:57;101205.66;;;15.97;39.57
16331;BME280;8275;48.206;16.340;2023-02-12T11:09:30;101205.00;;;16.35;39.25
16331;BME280;8275;48.206;16.340;2023-02-12T11:12:02;101203.44;;;16.67;38.50
16331;BME280;8275;48.206;16.340;2023-02-12T11:14:31;101195.56;;;16.93;37.95
16331;BME280;8275;48.206;16.340;2023-02-12T11:17:01;101191.28;;;17.18;37.39
16331;BME280;8275;48.206;16.340;2023-02-12T11:19:32;101187.75;;;17.39;36.89
16331;BME280;8275;48.206;16.340;2023-02-12T11:22:09;101183.03;;;17.57;36.34
16331;BME280;8275;48.206;16.340;2023-02-12T11:24:41;101182.28;;;17.83;36.11
16331;BME280;8275;48.206;16.340;2023-02-12T11:27:22;101177.31;;;18.06;35.34
16331;BME280;8275;48.206;16.340;2023-02-12T11:30:16;101173.69;;;18.33;35.40
16331;BME280;8275;48.206;16.340;2023-02-12T11:32:46;101172.75;;;18.70;34.84
16331;BME280;8275;48.206;16.340;2023-02-12T11:35:22;101160.00;;;19.06;34.80
16331;BME280;8275;48.206;16.340;2023-02-12T11:37:55;101164.31;;;19.29;34.18
16331;BME280;8275;48.206;16.340;2023-02-12T11:40:28;101161.41;;;19.50;33.71
16331;BME280;8275;48.206;16.340;2023-02-12T11:43:03;101167.63;;;19.68;33.47
16331;BME280;8275;48.206;16.340;2023-02-12T11:45:36;101160.72;;;19.75;33.12
16331;BME280;8275;48.206;16.340;2023-02-12T11:48:18;101156.31;;;19.84;33.30
16331;BME280;8275;48.206;16.340;2023-02-12T11:50:52;101166.97;;;20.02;32.72
16331;BME280;8275;48.206;16.340;2023-02-12T11:53:26;101165.13;;;20.23;32.01
16331;BME280;8275;48.206;16.340;2023-02-12T11:55:59;101163.47;;;20.37;31.05
16331;BME280;8275;48.206;16.340;2023-02-12T11:58:30;101149.00;;;20.40;30.83
16331;BME280;8275;48.206;16.340;2023-02-12T12:01:06;101167.66;;;20.50;31.39
16331;BME280;8275;48.206;16.340;2023-02-12T12:03:44;101157.97;;;20.67;31.19
16331;BME280;8275;48.206;16.340;2023-02-12T12:06:29;101166.03;;;20.89;30.28
16331;BME280;8275;48.206;16.340;2023-02-12T12:09:16;101167.97;;;20.93;30.61
16331;BME280;8275;48.206;16.340;2023-02-12T12:11:57;101159.38;;;21.10;30.81
16331;BME280;8275;48.206;16.340;2023-02-12T12:14:30;101154.91;;;21.09;30.28
16331;BME280;8275;48.206;16.340;2023-02-12T12:17:04;101154.03;;;20.93;30.25
16331;BME280;8275;48.206;16.340;2023-02-12T12:19:57;101152.66;;;21.26;30.70
16331;BME280;8275;48.206;16.340;2023-02-12T12:22:41;101155.31;;;21.72;30.83
16331;BME280;8275;48.206;16.340;2023-02-12T12:25:21;101145.31;;;22.29;30.28
16331;BME280;8275;48.206;16.340;2023-02-12T12:28:04;101144.09;;;22.84;29.40
16331;BME280;8275;48.206;16.340;2023-02-12T12:30:56;101128.69;;;23.21;28.39
16331;BME280;8275;48.206;16.340;2023-02-12T12:33:42;101127.94;;;23.10;28.09
16331;BME280;8275;48.206;16.340;2023-02-12T12:36:56;101125.84;;;22.58;28.99
16331;BME280;8275;48.206;16.340;2023-02-12T12:39:35;101125.38;;;22.46;29.62
16331;BME280;8275;48.206;16.340;2023-02-12T12:46:07;101136.31;;;22.81;29.35
16331;BME280;8275;48.206;16.340;2023-02-12T12:49:02;101131.66;;;23.00;28.62
16331;BME280;8275;48.206;16.340;2023-02-12T12:55:16;101143.38;;;21.66;28.04
16331;BME280;8275;48.206;16.340;2023-02-12T12:57:58;101139.00;;;20.89;28.62
16331;BME280;8275;48.206;16.340;2023-02-12T13:00:44;101143.97;;;20.27;29.11
16331;BME280;8275;48.206;16.340;2023-02-12T13:03:41;101151.41;;;20.11;30.04
16331;BME280;8275;48.206;16.340;2023-02-12T13:06:35;101138.13;;;20.23;30.10
16331;BME280;8275;48.206;16.340;2023-02-12T13:09:33;101141.75;;;20.34;29.61
16331;BME280;8275;48.206;16.340;2023-02-12T13:12:42;101146.94;;;20.10;29.84
16331;BME280;8275;48.206;16.340;2023-02-12T13:15:25;101158.47;;;19.72;30.02
16331;BME280;8275;48.206;16.340;2023-02-12T13:18:05;101158.44;;;19.25;30.50
16331;BME280;8275;48.206;16.340;2023-02-12T13:20:48;101158.16;;;18.85;30.87
16331;BME280;8275;48.206;16.340;2023-02-12T13:23:32;101157.44;;;18.41;31.29
16331;BME280;8275;48.206;16.340;2023-02-12T13:26:11;101157.81;;;18.01;31.89
16331;BME280;8275;48.206;16.340;2023-02-12T13:28:51;101160.78;;;17.73;32.46
16331;BME280;8275;48.206;16.340;2023-02-12T13:31:28;101161.25;;;17.48;32.86
16331;BME280;8275;48.206;16.340;2023-02-12T13:34:03;101158.53;;;17.32;33.35
16331;BME280;8275;48.206;16.340;2023-02-12T13:36:36;101165.00;;;17.21;33.45
16331;BME280;8275;48.206;16.340;2023-02-12T13:39:14;101160.06;;;17.06;33.64
16331;BME280;8275;48.206;16.340;2023-02-12T13:41:57;101169.22;;;16.90;34.10